sensor_id;sensor_type;location;lat;lon;timestamp;pressure;altitude;pressure_sealevel;temperature;humidity
20620;BME280;10469;42.720;23.252;2022-07-23T05:32:47;95211.22;;;23.80;100.00
20620;BME280;10469;42.720;23.252;2022-07-23T05:35:13;95202.22;;;23.65;100.00
20620;BME280;10469;42.720;23.252;2022-07-23T05:37:38;95212.19;;;23.84;100.00
20620;BME280;10469;42.720;23.252;2022-07-23T05:40:05;95212.50;;;24.13;100.00
20620;BME280;10469;42.720;23.252;2022-07-23T05:42:33;95212.78;;;24.03;100.00
20620;BME280;10469;42.720;23.252;2022-07-23T05:44:58;95208.09;;;24.35;100.00
20620;BME280;10469;42.720;23.252;2022-07-23T05:47:24;95212.84;;;24.43;96.38
20620;BME280;10469;42.720;23.252;2022-07-23T05:49:49;95209.06;;;24.61;96.09
20620;BME280;10469;42.720;23.252;2022-07-23T05:52:15;95201.97;;;24.69;94.86
20620;BME280;10469;42.720;23.252;2022-07-23T05:54:40;95207.84;;;24.85;93.81
20620;BME280;10469;42.720;23.252;2022-07-23T05:57:05;95206.09;;;24.97;93.04
20620;BME280;10469;42.720;23.252;2022-07-23T05:59:31;95204.03;;;25.12;95.70
20620;BME280;10469;42.720;23.252;2022-07-23T06:01:56;95203.81;;;24.91;94.22
20620;BME280;10469;42.720;23.252;2022-07-23T06:04:22;95203.91;;;25.43;92.75
20620;BME280;10469;42.720;23.252;2022-07-23T06:06:47;95203.59;;;25.53;90.67
20620;BME280;10469;42.720;23.252;2022-07-23T06:09:13;95203.50;;;26.22;84.81
20620;BME280;10469;42.720;23.252;2022-07-23T06:11:39;95192.41;;;26.01;84.59
20620;BME280;10469;42.720;23.252;2022-07-23T06:14:05;95207.94;;;25.89;83.86
20620;BME280;10469;42.720;23.252;2022-07-23T06:16:30;95197.75;;;25.89;84.65
20620;BME280;10469;42.720;23.252;2022-07-23T06:18:56;95185.47;;;26.42;82.51
20620;BME280;10469;42.720;23.252;2022-07-23T06:21:21;95200.13;;;27.23;80.43
20620;BME280;10469;42.720;23.252;2022-07-23T06:23:47;95200.34;;;27.39;77.71
20620;BME280;10469;42.720;23.252;2022-07-23T06:26:12;95198.00;;;28.37;72.64
20620;BME280;10469;42.720;23.252;2022-07-23T06:28:38;95192.44;;;29.71;63.64
20620;BME280;10469;42.720;23.252;2022-07-23T06:31:03;95192.03;;;29.45;64.20
20620;BME280;10469;42.720;23.252;2022-07-23T06:33:29;95183.53;;;30.82;56.95
20620;BME280;10469;42.720;23.252;2022-07-23T06:35:54;95187.22;;;30.26;57.50
20620;BME280;10469;42.720;23.252;2022-07-23T06:38:19;95193.31;;;31.11;52.94
20620;BME280;10469;42.720;23.252;2022-07-23T06:40:48;95191.00;;;30.65;53.70
20620;BME280;10469;42.720;23.252;2022-07-23T06:43:13;95197.00;;;30.99;53.72
20620;BME280;10469;42.720;23.252;2022-07-23T06:45:39;95184.91;;;32.59;48.51
20620;BME280;10469;42.720;23.252;2022-07-23T06:48:04;95190.03;;;30.73;53.03
20620;BME280;10469;42.720;23.252;2022-07-23T06:50:30;95191.59;;;31.77;51.25
20620;BME280;10469;42.720;23.252;2022-07-23T06:52:55;95185.47;;;31.48;50.18
20620;BME280;10469;42.720;23.252;2022-07-23T06:55:21;95187.00;;;32.23;48.59
20620;BME280;10469;42.720;23.252;2022-07-23T06:57:46;95183.03;;;33.12;43.58
20620;BME280;10469;42.720;23.252;2022-07-23T07:00:12;95175.50;;;34.00;42.45
20620;BME280;10469;42.720;23.252;2022-07-23T07:02:37;95177.06;;;35.19;40.22
20620;BME280;10469;42.720;23.252;2022-07-23T07:05:03;95168.69;;;35.19;38.98
20620;BME280;10469;42.720;23.252;2022-07-23T07:07:29;95177.19;;;34.89;38.35
20620;BME280;10469;42.720;23.252;2022-07-23T07:09:54;95180.03;;;32.10;44.55
20620;BME280;10469;42.720;23.252;2022-07-23T07:12:19;95180.13;;;32.59;44.35
20620;BME280;10469;42.720;23.252;2022-07-23T07:14:45;95171.34;;;35.60;38.77
20620;BME280;10469;42.720;23.252;2022-07-23T07:17:10;95161.31;;;33.78;39.60
20620;BME280;10469;42.720;23.252;2022-07-23T07:19:36;95169.31;;;32.31;43.81
20620;BME280;10469;42.720;23.252;2022-07-23T07:22:02;95157.81;;;33.55;41.36
20620;BME280;10469;42.720;23.252;2022-07-23T07:24:27;95160.25;;;33.56;41.21
20620;BME280;10469;42.720;23.252;2022-07-23T07:26:53;95158.91;;;33.20;41.70
20620;BME280;10469;42.720;23.252;2022-07-23T07:29:18;95152.78;;;32.15;43.28
20620;BME280;10469;42.720;23.252;2022-07-23T07:31:44;95162.50;;;33.20;43.13
20620;BME280;10469;42.720;23.252;2022-07-23T07:34:09;95152.38;;;33.35;41.53
20620;BME280;10469;42.720;23.252;2022-07-23T07:36:35;95159.13;;;33.94;41.25
20620;BME280;10469;42.720;23.252;2022-07-23T07:39:03;95143.47;;;33.49;41.85
20620;BME280;10469;42.720;23.252;2022-07-23T07:41:31;95149.53;;;34.66;38.84
20620;BME280;10469;42.720;23.252;2022-07-23T07:43:56;95140.00;;;33.93;39.18
20620;BME280;10469;42.720;23.252;2022-07-23T07:46:22;95144.22;;;35.57;37.15
20620;BME280;10469;42.720;23.252;2022-07-23T07:48:49;95155.09;;;35.14;37.27
20620;BME280;10469;42.720;23.252;2022-07-23T07:51:15;95143.22;;;34.29;39.29
20620;BME280;10469;42.720;23.252;2022-07-23T07:53:40;95144.03;;;34.74;38.82
20620;BME280;10469;42.720;23.252;2022-07-23T07:56:06;95128.16;;;34.78;38.77
20620;BME280;10469;42.720;23.252;2022-07-23T07:58:31;95140.31;;;35.03;37.66
20620;BME280;10469;42.720;23.252;2022-07-23T08:00:57;95138.88;;;34.35;37.96
20620;BME280;10469;42.720;23.252;2022-07-23T08:03:22;95140.63;;;34.09;39.12
20620;BME280;10469;42.720;23.252;2022-07-23T08:05:48;95147.81;;;34.51;38.97
20620;BME280;10469;42.720;23.252;2022-07-23T08:08:13;95133.28;;;34.72;38.34
20620;BME280;10469;42.720;23.252;2022-07-23T08:10:42;95135.28;;;36.07;36.49
20620;BME280;10469;42.720;23.252;2022-07-23T08:13:13;95134.47;;;36.06;35.97
20620;BME280;10469;42.720;23.252;2022-07-23T08:15:39;95134.88;;;36.08;36.08
20620;BME280;10469;42.720;23.252;2022-07-23T08:18:05;95137.81;;;34.47;38.59
20620;BME280;10469;42.720;23.252;2022-07-23T08:20:30;95129.47;;;34.47;38.08
20620;BME280;10469;42.720;23.252;2022-07-23T08:25:26;95138.22;;;34.97;37.75
20620;BME280;10469;42.720;23.252;2022-07-23T08:27:53;95131.66;;;34.67;38.43
20620;BME280;10469;42.720;23.252;2022-07-23T08:30:20;95123.22;;;35.85;36.88
20620;BME280;10469;42.720;23.252;2022-07-23T08:35:35;95129.72;;;36.35;35.10
20620;BME280;10469;42.720;23.252;2022-07-23T08:38:05;95135.41;;;34.93;37.41
20620;BME280;10469;42.720;23.252;2022-07-23T08:40:32;95123.38;;;36.28;36.81
20620;BME280;10469;42.720;23.252;2022-07-23T08:42:58;95118.63;;;36.67;35.17
20620;BME280;10469;42.720;23.252;2022-07-23T08:45:26;95118.38;;;35.67;36.18
20620;BME280;10469;42.720;23.252;2022-07-23T08:47:57;95114.91;;;35.15;36.88
20620;BME280;10469;42.720;23.252;2022-07-23T08:50:26;95107.31;;;35.12;37.71
20620;BME280;10469;42.720;23.252;2022-07-23T08:52:52;95103.94;;;35.48;36.31
20620;BME280;10469;42.720;23.252;2022-07-23T08:55:20;95115.75;;;35.27;37.70
20620;BME280;10469;42.720;23.252;2022-07-23T08:57:51;95110.22;;;35.34;36.96
20620;BME280;10469;42.720;23.252;2022-07-23T09:00:18;95108.97;;;36.26;35.49
20620;BME280;10469;42.720;23.252;2022-07-23T09:02:45;95100.53;;;37.58;33.61
20620;BME280;10469;42.720;23.252;2022-07-23T09:05:12;95105.06;;;36.66;34.00
20620;BME280;10469;42.720;23.252;2022-07-23T09:10:29;95098.63;;;38.80;31.31
20620;BME280;10469;42.720;23.252;2022-07-23T09:12:56;95098.53;;;37.58;32.27
20620;BME280;10469;42.720;23.252;2022-07-23T09:15:22;95087.81;;;37.32;33.41
20620;BME280;10469;42.720;23.252;2022-07-23T09:17:47;95100.66;;;36.90;34.07
20620;BME280;10469;42.720;23.252;2022-07-23T09:20:15;95100.44;;;35.68;34.02
20620;BME280;10469;42.720;23.252;2022-07-23T09:22:47;95105.81;;;37.27;32.72
20620;BME280;10469;42.720;23.252;2022-07-23T09:25:18;95104.84;;;37.87;31.71
20620;BME280;10469;42.720;23.252;2022-07-23T09:27:58;95098.19;;;39.64;30.31
20620;BME280;10469;42.720;23.252;2022-07-23T09:30:27;95101.09;;;39.54;29.37
20620;BME280;10469;42.720;23.252;2022-07-23T09:33:08;95098.47;;;37.76;30.69
20620;BME280;10469;42.720;23.252;2022-07-23T09:35:49;95090.72;;;39.85;28.99
20620;BME280;10469;42.720;23.252;2022-07-23T09:38:16;95085.69;;;37.72;30.88
20620;BME280;10469;42.720;23.252;2022-07-23T09:40:43;95085.06;;;38.72;29.68
20620;BME280;10469;42.720;23.252;2022-07-23T09:43:08;95072.13;;;39.64;28.53
20620;BME280;10469;42.720;23.252;2022-07-23T09:45:34;95071.09;;;39.13;28.63
20620;BME280;10469;42.720;23.252;2022-07-23T09:48:13;95079.97;;;38.56;28.55
20620;BME280;10469;42.720;23.252;2022-07-23T09:50:40;95075.50;;;40.17;26.94
20620;BME280;10469;42.720;23.252;2022-07-23T09:53:06;95063.84;;;38.78;27.93
20620;BME280;10469;42.720;23.252;2022-07-23T09:55:33;95069.72;;;39.62;26.89
20620;BME280;10469;42.720;23.252;2022-07-23T09:58:04;95064.28;;;38.69;28.09
20620;BME280;10469;42.720;23.252;2022-07-23T10:00:31;95063.06;;;38.14;28.04
20620;BME280;10469;42.720;23.252;2022-07-23T10:02:57;95063.03;;;38.22;27.99
20620;BME280;10469;42.720;23.252;2022-07-23T10:05:24;95058.00;;;39.37;27.24
20620;BME280;10469;42.720;23.252;2022-07-23T10:07:51;95059.97;;;40.32;25.46
20620;BME280;10469;42.720;23.252;2022-07-23T10:10:17;95056.91;;;39.31;26.69
20620;BME280;10469;42.720;23.252;2022-07-23T10:12:46;95053.03;;;41.34;23.83
20620;BME280;10469;42.720;23.252;2022-07-23T10:15:18;95050.28;;;40.64;22.35
20620;BME280;10469;42.720;23.252;2022-07-23T10:17:44;95036.44;;;37.85;25.94
20620;BME280;10469;42.720;23.252;2022-07-23T10:20:10;95037.13;;;38.03;26.39
20620;BME280;10469;42.720;23.252;2022-07-23T10:22:42;95041.78;;;39.86;24.54
20620;BME280;10469;42.720;23.252;2022-07-23T10:25:22;95041.84;;;40.64;24.35
20620;BME280;10469;42.720;23.252;2022-07-23T10:31:04;95037.09;;;42.56;21.06
20620;BME280;10469;42.720;23.252;2022-07-23T10:36:20;95035.09;;;40.34;23.49
20620;BME280;10469;42.720;23.252;2022-07-23T10:38:55;95030.25;;;40.34;23.15
20620;BME280;10469;42.720;23.252;2022-07-23T10:42:16;95031.28;;;38.91;24.41
20620;BME280;10469;42.720;23.252;2022-07-23T10:44:46;95020.44;;;40.70;22.27
20620;BME280;10469;42.720;23.252;2022-07-23T10:47:21;95018.13;;;39.87;22.42
20620;BME280;10469;42.720;23.252;2022-07-23T10:49:51;95005.16;;;40.71;21.95
20620;BME280;10469;42.720;23.252;2022-07-23T10:52:18;95006.53;;;42.54;19.11
20620;BME280;10469;42.720;23.252;2022-07-23T10:57:25;95010.16;;;40.36;20.68
20620;BME280;10469;42.720;23.252;2022-07-23T11:00:12;95004.81;;;38.92;21.38
20620;BME280;10469;42.720;23.252;2022-07-23T11:02:39;95001.19;;;40.21;21.26
20620;BME280;10469;42.720;23.252;2022-07-23T11:05:10;94986.59;;;42.94;19.51
20620;BME280;10469;42.720;23.252;2022-07-23T11:10:45;94985.28;;;42.17;18.86
20620;BME280;10469;42.720;23.252;2022-07-23T11:13:29;94984.16;;;43.38;17.85
20620;BME280;10469;42.720;23.252;2022-07-23T11:24:15;94972.34;;;40.17;20.49
20620;BME280;10469;42.720;23.252;2022-07-23T11:45:33;94956.44;;;39.22;19.50
20620;BME280;10469;42.720;23.252;2022-07-23T11:47:59;94953.72;;;39.11;19.64
20620;BME280;10469;42.720;23.252;2022-07-23T11:50:25;94949.69;;;37.11;21.12
20620;BME280;10469;42.720;23.252;2022-07-23T11:52:51;94941.25;;;37.92;20.74
20620;BME280;10469;42.720;23.252;2022-07-23T11:55:17;94946.59;;;37.69;20.04
20620;BME280;10469;42.720;23.252;2022-07-23T11:57:43;94941.50;;;38.08;18.69
20620;BME280;10469;42.720;23.252;2022-07-23T12:00:17;94944.34;;;37.42;19.16
20620;BME280;10469;42.720;23.252;2022-07-23T12:02:50;94943.00;;;36.73;20.41
20620;BME280;10469;42.720;23.252;2022-07-23T12:05:22;94946.63;;;35.88;20.74
20620;BME280;10469;42.720;23.252;2022-07-23T12:07:53;94933.06;;;35.83;21.25
20620;BME280;10469;42.720;23.252;2022-07-23T12:12:50;94940.25;;;36.41;19.14
20620;BME280;10469;42.720;23.252;2022-07-23T12:15:19;94928.25;;;36.69;18.09
20620;BME280;10469;42.720;23.252;2022-07-23T12:17:47;94935.88;;;35.76;18.39
20620;BME280;10469;42.720;23.252;2022-07-23T12:20:15;94921.13;;;36.50;18.62
20620;BME280;10469;42.720;23.252;2022-07-23T12:22:46;94921.44;;;36.77;18.53
20620;BME280;10469;42.720;23.252;2022-07-23T12:25:16;94926.66;;;36.68;19.53
20620;BME280;10469;42.720;23.252;2022-07-23T12:27:43;94926.69;;;36.39;21.42
20620;BME280;10469;42.720;23.252;2022-07-23T12:30:20;94921.56;;;36.06;19.54
20620;BME280;10469;42.720;23.252;2022-07-23T12:32:48;94920.72;;;36.27;19.70
20620;BME280;10469;42.720;23.252;2022-07-23T12:35:14;94900.78;;;36.28;18.39
20620;BME280;10469;42.720;23.252;2022-07-23T12:37:42;94903.94;;;36.59;18.82
20620;BME280;10469;42.720;23.252;2022-07-23T12:43:21;94905.97;;;35.87;20.44
20620;BME280;10469;42.720;23.252;2022-07-23T12:45:48;94907.19;;;35.97;20.34
20620;BME280;10469;42.720;23.252;2022-07-23T12:51:05;94898.22;;;36.91;19.75
20620;BME280;10469;42.720;23.252;2022-07-23T12:56:18;94890.41;;;36.32;19.65
20620;BME280;10469;42.720;23.252;2022-07-23T12:58:55;94893.59;;;36.31;19.86
20620;BME280;10469;42.720;23.252;2022-07-23T13:06:20;94877.25;;;36.29;20.27
20620;BME280;10469;42.720;23.252;2022-07-23T13:08:46;94887.25;;;36.23;20.77
20620;BME280;10469;42.720;23.252;2022-07-23T13:11:11;94880.03;;;36.47;20.33
20620;BME280;10469;42.720;23.252;2022-07-23T13:13:37;94879.06;;;36.97;19.00
20620;BME280;10469;42.720;23.252;2022-07-23T13:16:03;94881.72;;;37.22;18.71
20620;BME280;10469;42.720;23.252;2022-07-23T13:18:29;94878.25;;;37.00;18.18
20620;BME280;10469;42.720;23.252;2022-07-23T13:20:55;94883.72;;;37.17;18.08
20620;BME280;10469;42.720;23.252;2022-07-23T13:23:21;94883.09;;;36.81;18.74
20620;BME280;10469;42.720;23.252;2022-07-23T13:25:48;94873.66;;;36.36;18.61
20620;BME280;10469;42.720;23.252;2022-07-23T13:28:15;94877.97;;;36.65;19.14
20620;BME280;10469;42.720;23.252;2022-07-23T13:30:41;94877.09;;;36.83;18.59
20620;BME280;10469;42.720;23.252;2022-07-23T13:33:07;94866.59;;;37.15;18.51
20620;BME280;10469;42.720;23.252;2022-07-23T13:35:34;94863.81;;;37.08;17.60
20620;BME280;10469;42.720;23.252;2022-07-23T13:38:01;94872.16;;;37.23;17.79
20620;BME280;10469;42.720;23.252;2022-07-23T13:40:27;94852.72;;;36.94;18.47
20620;BME280;10469;42.720;23.252;2022-07-23T13:42:53;94857.66;;;37.42;17.00
20620;BME280;10469;42.720;23.252;2022-07-23T13:45:18;94842.31;;;36.91;17.94
20620;BME280;10469;42.720;23.252;2022-07-23T13:47:44;94841.53;;;37.01;18.54
20620;BME280;10469;42.720;23.252;2022-07-23T13:50:09;94868.31;;;36.88;18.58
20620;BME280;10469;42.720;23.252;2022-07-23T13:52:35;94866.59;;;37.12;19.26
20620;BME280;10469;42.720;23.252;2022-07-23T13:55:02;94853.34;;;37.27;18.40
20620;BME280;10469;42.720;23.252;2022-07-23T13:57:29;94860.91;;;37.26;17.44
20620;BME280;10469;42.720;23.252;2022-07-23T13:59:54;94844.84;;;36.67;17.89
20620;BME280;10469;42.720;23.252;2022-07-23T14:02:20;94836.00;;;36.80;18.17
20620;BME280;10469;42.720;23.252;2022-07-23T14:04:45;94848.81;;;36.70;18.55
20620;BME280;10469;42.720;23.252;2022-07-23T14:07:11;94850.78;;;36.77;18.45
20620;BME280;10469;42.720;23.252;2022-07-23T14:09:37;94850.44;;;36.67;18.94
20620;BME280;10469;42.720;23.252;2022-07-23T14:12:03;94845.00;;;36.10;19.07
20620;BME280;10469;42.720;23.252;2022-07-23T14:14:29;94836.88;;;36.62;17.78
20620;BME280;10469;42.720;23.252;2022-07-23T14:16:55;94837.88;;;37.08;17.59
20620;BME280;10469;42.720;23.252;2022-07-23T14:19:21;94837.06;;;37.07;17.88
20620;BME280;10469;42.720;23.252;2022-07-23T14:21:47;94838.75;;;36.94;17.75
20620;BME280;10469;42.720;23.252;2022-07-23T14:24:14;94842.31;;;36.91;18.05
20620;BME280;10469;42.720;23.252;2022-07-23T14:26:40;94845.78;;;37.20;17.91
20620;BME280;10469;42.720;23.252;2022-07-23T14:29:06;94838.06;;;37.38;18.48
20620;BME280;10469;42.720;23.252;2022-07-23T14:31:31;94842.75;;;36.86;19.52
20620;BME280;10469;42.720;23.252;2022-07-23T14:33:56;94843.03;;;37.13;17.85
20620;BME280;10469;42.720;23.252;2022-07-23T14:36:22;94838.63;;;37.19;17.74
20620;BME280;10469;42.720;23.252;2022-07-23T14:38:47;94836.84;;;36.70;18.59
20620;BME280;10469;42.720;23.252;2022-07-23T14:41:13;94828.97;;;36.47;18.11
20620;BME280;10469;42.720;23.252;2022-07-23T14:43:38;94821.41;;;36.33;18.59
20620;BME280;10469;42.720;23.252;2022-07-23T14:46:04;94818.69;;;36.08;19.36
20620;BME280;10469;42.720;23.252;2022-07-23T14:48:30;94818.56;;;36.40;19.71
20620;BME280;10469;42.720;23.252;2022-07-23T14:50:56;94818.59;;;36.47;19.92
20620;BME280;10469;42.720;23.252;2022-07-23T14:53:22;94815.50;;;35.77;20.40
20620;BME280;10469;42.720;23.252;2022-07-23T14:55:47;94817.50;;;35.69;20.42
20620;BME280;10469;42.720;23.252;2022-07-23T14:58:12;94814.69;;;36.09;20.52
20620;BME280;10469;42.720;23.252;2022-07-23T15:00:38;94817.81;;;36.29;20.30
20620;BME280;10469;42.720;23.252;2022-07-23T15:03:03;94812.19;;;36.43;20.41
20620;BME280;10469;42.720;23.252;2022-07-23T15:05:29;94812.56;;;36.59;20.45
20620;BME280;10469;42.720;23.252;2022-07-23T15:07:55;94799.88;;;36.23;20.32
20620;BME280;10469;42.720;23.252;2022-07-23T15:10:21;94810.59;;;36.42;20.35
20620;BME280;10469;42.720;23.252;2022-07-23T15:12:46;94809.75;;;36.59;19.98
20620;BME280;10469;42.720;23.252;2022-07-23T15:15:12;94812.31;;;36.04;20.33
20620;BME280;10469;42.720;23.252;2022-07-23T15:17:38;94806.72;;;35.86;20.63
20620;BME280;10469;42.720;23.252;2022-07-23T15:20:04;94804.34;;;35.74;21.12
20620;BME280;10469;42.720;23.252;2022-07-23T15:22:30;94788.44;;;35.60;20.59
20620;BME280;10469;42.720;23.252;2022-07-23T15:24:56;94798.75;;;35.91;20.32
20620;BME280;10469;42.720;23.252;2022-07-23T15:27:21;94798.72;;;36.13;20.20
20620;BME280;10469;42.720;23.252;2022-07-23T15:29:47;94798.78;;;35.77;20.08
20620;BME280;10469;42.720;23.252;2022-07-23T15:32:12;94796.41;;;35.72;20.69
20620;BME280;10469;42.720;23.252;2022-07-23T15:34:38;94793.22;;;35.56;20.86
20620;BME280;10469;42.720;23.252;2022-07-23T15:37:04;94791.19;;;35.71;20.19
20620;BME280;10469;42.720;23.252;2022-07-23T15:39:33;94796.41;;;35.68;19.90
20620;BME280;10469;42.720;23.252;2022-07-23T15:41:59;94797.53;;;35.92;20.09
20620;BME280;10469;42.720;23.252;2022-07-23T15:44:25;94797.50;;;36.21;19.63
20620;BME280;10469;42.720;23.252;2022-07-23T15:46:51;94790.75;;;36.18;19.43
20620;BME280;10469;42.720;23.252;2022-07-23T15:49:16;94797.09;;;36.23;19.41
20620;BME280;10469;42.720;23.252;2022-07-23T15:51:42;94794.72;;;36.17;20.02
20620;BME280;10469;42.720;23.252;2022-07-23T15:54:07;94800.22;;;36.39;20.01
20620;BME280;10469;42.720;23.252;2022-07-23T15:56:33;94797.00;;;36.58;20.05
20620;BME280;10469;42.720;23.252;2022-07-23T15:58:58;94805.13;;;36.06;21.23
20620;BME280;10469;42.720;23.252;2022-07-23T16:01:24;94799.97;;;35.30;24.44
20620;BME280;10469;42.720;23.252;2022-07-23T16:03:49;94807.50;;;35.18;24.84
20620;BME280;10469;42.720;23.252;2022-07-23T16:06:15;94803.56;;;35.19;24.56
20620;BME280;10469;42.720;23.252;2022-07-23T16:08:41;94804.69;;;35.01;24.93
20620;BME280;10469;42.720;23.252;2022-07-23T16:11:06;94801.09;;;34.97;25.01
20620;BME280;10469;42.720;23.252;2022-07-23T16:13:32;94796.28;;;34.86;24.58
20620;BME280;10469;42.720;23.252;2022-07-23T16:15:57;94805.06;;;34.85;25.34
20620;BME280;10469;42.720;23.252;2022-07-23T16:18:24;94791.09;;;34.74;25.28
20620;BME280;10469;42.720;23.252;2022-07-23T16:20:51;94807.41;;;34.76;25.32
20620;BME280;10469;42.720;23.252;2022-07-23T16:23:17;94809.00;;;34.77;24.75
20620;BME280;10469;42.720;23.252;2022-07-23T16:25:43;94805.44;;;34.76;25.02
20620;BME280;10469;42.720;23.252;2022-07-23T16:28:09;94798.63;;;34.66;24.67
20620;BME280;10469;42.720;23.252;2022-07-23T16:30:34;94787.44;;;34.52;24.94
20620;BME280;10469;42.720;23.252;2022-07-23T16:33:01;94810.06;;;34.43;25.28
20620;BME280;10469;42.720;23.252;2022-07-23T16:35:27;94802.50;;;34.44;25.45
20620;BME280;10469;42.720;23.252;2022-07-23T16:37:53;94800.91;;;34.43;25.36
20620;BME280;10469;42.720;23.252;2022-07-23T16:40:18;94806.06;;;34.37;25.70
20620;BME280;10469;42.720;23.252;2022-07-23T16:42:44;94811.97;;;34.25;26.08
20620;BME280;10469;42.720;23.252;2022-07-23T16:45:10;94805.97;;;34.23;26.16
20620;BME280;10469;42.720;23.252;2022-07-23T16:47:37;94807.94;;;34.19;26.00
20620;BME280;10469;42.720;23.252;2022-07-23T16:50:04;94805.16;;;34.12;26.46
20620;BME280;10469;42.720;23.252;2022-07-23T16:52:30;94809.06;;;34.04;26.37
20620;BME280;10469;42.720;23.252;2022-07-23T16:54:55;94811.41;;;33.98;26.48
20620;BME280;10469;42.720;23.252;2022-07-23T16:57:21;94804.19;;;33.90;26.34
20620;BME280;10469;42.720;23.252;2022-07-23T16:59:47;94804.91;;;33.80;26.06
20620;BME280;10469;42.720;23.252;2022-07-23T17:02:13;94810.88;;;33.78;26.29
20620;BME280;10469;42.720;23.252;2022-07-23T17:04:38;94808.06;;;33.75;26.24
20620;BME280;10469;42.720;23.252;2022-07-23T17:07:03;94803.22;;;33.64;26.29
20620;BME280;10469;42.720;23.252;2022-07-23T17:09:33;94804.72;;;33.55;26.84
20620;BME280;10469;42.720;23.252;2022-07-23T17:11:59;94801.91;;;33.48;26.74
20620;BME280;10469;42.720;23.252;2022-07-23T17:14:24;94807.44;;;33.44;26.88
20620;BME280;10469;42.720;23.252;2022-07-23T17:16:50;94802.19;;;33.35;27.08
20620;BME280;10469;42.720;23.252;2022-07-23T17:19:16;94794.13;;;33.23;27.41
20620;BME280;10469;42.720;23.252;2022-07-23T17:21:41;94808.47;;;33.25;27.33
20620;BME280;10469;42.720;23.252;2022-07-23T17:24:07;94799.22;;;33.14;27.31
20620;BME280;10469;42.720;23.252;2022-07-23T17:26:33;94800.75;;;33.11;27.77
20620;BME280;10469;42.720;23.252;2022-07-23T17:29:00;94802.22;;;32.98;27.93
20620;BME280;10469;42.720;23.252;2022-07-23T17:31:25;94796.22;;;32.92;28.12
20620;BME280;10469;42.720;23.252;2022-07-23T17:33:51;94789.38;;;32.83;28.21
20620;BME280;10469;42.720;23.252;2022-07-23T17:36:16;94798.06;;;32.78;28.76
20620;BME280;10469;42.720;23.252;2022-07-23T17:38:44;94806.88;;;32.87;29.20
20620;BME280;10469;42.720;23.252;2022-07-23T17:41:10;94803.38;;;32.56;29.48
20620;BME280;10469;42.720;23.252;2022-07-23T17:43:35;94815.69;;;32.29;30.80
20620;BME280;10469;42.720;23.252;2022-07-23T17:46:01;94805.59;;;32.13;31.68
20620;BME280;10469;42.720;23.252;2022-07-23T17:48:27;94809.34;;;31.98;31.63
20620;BME280;10469;42.720;23.252;2022-07-23T17:50:53;94812.81;;;31.91;32.68
20620;BME280;10469;42.720;23.252;2022-07-23T17:53:21;94810.84;;;31.69;33.58
20620;BME280;10469;42.720;23.252;2022-07-23T17:55:49;94809.53;;;31.59;34.00
20620;BME280;10469;42.720;23.252;2022-07-23T17:58:14;94807.41;;;31.49;34.30
20620;BME280;10469;42.720;23.252;2022-07-23T18:00:40;94812.66;;;31.31;34.54
20620;BME280;10469;42.720;23.252;2022-07-23T18:03:05;94815.16;;;31.17;35.18
20620;BME280;10469;42.720;23.252;2022-07-23T18:05:31;94819.34;;;31.07;35.46
20620;BME280;10469;42.720;23.252;2022-07-23T18:07:56;94828.56;;;30.92;36.28
20620;BME280;10469;42.720;23.252;2022-07-23T18:10:22;94833.09;;;30.81;36.52
20620;BME280;10469;42.720;23.252;2022-07-23T18:12:48;94820.78;;;30.59;38.39
20620;BME280;10469;42.720;23.252;2022-07-23T18:15:14;94815.13;;;30.32;38.91
20620;BME280;10469;42.720;23.252;2022-07-23T18:17:40;94824.53;;;30.28;39.20
20620;BME280;10469;42.720;23.252;2022-07-23T18:20:07;94834.63;;;30.20;39.40
20620;BME280;10469;42.720;23.252;2022-07-23T18:22:33;94840.19;;;30.04;38.62
20620;BME280;10469;42.720;23.252;2022-07-23T18:24:59;94840.38;;;29.95;38.48
20620;BME280;10469;42.720;23.252;2022-07-23T18:27:25;94847.72;;;29.88;38.74
20620;BME280;10469;42.720;23.252;2022-07-23T18:29:50;94842.66;;;29.74;38.91
20620;BME280;10469;42.720;23.252;2022-07-23T18:32:16;94838.31;;;29.57;39.02
20620;BME280;10469;42.720;23.252;2022-07-23T18:34:42;94842.13;;;29.53;39.35
20620;BME280;10469;42.720;23.252;2022-07-23T18:37:08;94860.72;;;29.36;39.50
20620;BME280;10469;42.720;23.252;2022-07-23T18:39:33;94852.94;;;29.26;40.12
20620;BME280;10469;42.720;23.252;2022-07-23T18:42:00;94828.53;;;29.12;39.63
20620;BME280;10469;42.720;23.252;2022-07-23T18:44:26;94860.59;;;29.33;39.19
20620;BME280;10469;42.720;23.252;2022-07-23T18:46:52;94860.22;;;29.18;38.92
20620;BME280;10469;42.720;23.252;2022-07-23T18:49:17;94858.19;;;29.15;38.15
20620;BME280;10469;42.720;23.252;2022-07-23T18:51:42;94872.97;;;29.23;38.50
20620;BME280;10469;42.720;23.252;2022-07-23T18:54:08;94866.47;;;29.15;38.45
20620;BME280;10469;42.720;23.252;2022-07-23T18:56:36;94873.06;;;29.11;38.55
20620;BME280;10469;42.720;23.252;2022-07-23T18:59:01;94874.31;;;29.13;37.94
20620;BME280;10469;42.720;23.252;2022-07-23T19:01:29;94870.22;;;29.07;37.86
20620;BME280;10469;42.720;23.252;2022-07-23T19:03:56;94867.50;;;28.95;37.80
20620;BME280;10469;42.720;23.252;2022-07-23T19:06:22;94871.28;;;29.03;37.50
20620;BME280;10469;42.720;23.252;2022-07-23T19:08:48;94879.91;;;29.01;38.04
20620;BME280;10469;42.720;23.252;2022-07-23T19:11:13;94880.03;;;28.92;38.01
20620;BME280;10469;42.720;23.252;2022-07-23T19:13:39;94878.22;;;28.84;38.27
20620;BME280;10469;42.720;23.252;2022-07-23T19:16:04;94865.41;;;28.76;38.50
20620;BME280;10469;42.720;23.252;2022-07-23T19:18:30;94877.09;;;28.57;39.56
20620;BME280;10469;42.720;23.252;2022-07-23T19:20:56;94879.56;;;28.46;38.98
20620;BME280;10469;42.720;23.252;2022-07-23T19:23:22;94877.97;;;28.45;39.15